Capo Bellavista, Italy

8:41 PM CEST on August 22, 2014 (GMT +0200)
Elmas Mil | Change Station
CLOSE
Current Station
Airport
Location: Cagliari,
Elevation: 13 ft
Nearby Weather Stations

Elev 13 ft 39.24 °N, 9.06 °E | Updated 21 minutes ago

Partly Cloudy
Partly Cloudy
77 °F
Feels Like 77 °F
N
10
Wind Variable Wind from SE

Today
High -- | Low -- °F
--% Chance of Precip.
Yesterday
High -- | Low -- °F
Precip. -- in
6:39 AM 8:08 PM
Waning Crescent, 7% visible
Pressure 29.95 in
Visibility 6.2 miles
Clouds Few 1000 ft
Dew Point 75 °F
Humidity 94%
Rainfall 0.00 in
Snow Depth Not available.
UV 0 out of 12
Pollen Not available.
Air Quality Not available.
Flu Activity Not available.
METAR LIEE 221820Z 14009KT 9999 FEW010 25/24 Q1014

More Conditions Fewer Conditions

Pressure 29.95 in
Visibility 6.2 miles
Clouds Few 1000 ft
Dew Point 75 °F
Humidity 94%
Rainfall 0.00 in
Snow Depth Not available.
UV 0 out of 12
Pollen Not available.
Air Quality Not available.
Flu Activity Not available.
METAR LIEE 221820Z 14009KT 9999 FEW010 25/24 Q1014

More Conditions Fewer Conditions

10-Day Weather Forecast

Almanac

Astronomy

Aug. 22, 2014 Rise Set
Actual Time 6:39 AM CEST 8:08 PM CEST
Civil Twilight 6:10 AM CEST 8:36 PM CEST
Nautical Twilight 5:36 AM CEST 9:10 PM CEST
Astronomical Twilight 5:00 AM CEST 9:46 PM CEST
Moon 3:47 AM CEST 6:05 PM CEST
Length of Visible Light 14h 25m
Length of Day
13h 28m
Tomorrow will be 2m 25s shorter.
Waning Crescent, 7% of the Moon is Illuminated
Today
Waning Crescent
Aug 25
New
Sep 2
First Quarter
Sep 8
Full
Sep 15
Last Quarter

Today's Extremes

Country Highs Country Lows

Community

WunderPhotos

Upload Photos

1,746,216 photos uploaded!

Nearby

Snow Depth

Not available.

Earthquake Activity

City Distance Mag. Time & Date
No recent earthquake activity has been reported nearby.
Minimum magnitude displayed is 2.5.

Coastal Water Temperatures

Place Temperature
No Stations Reporting

Nearby Weather Stations